Novomoskovsk, Russia
Current Conditions -  °F | °C
As of 9:30 AM on Thursday 23 Oct 2014 (Local Time) from UUDD Reporting Station
Few Clouds Few Clouds  
Wind Chill:   Ceiling: Unl
Heat Index: 16°   Visibility: 6mi
Dew Point:   Wind: 16mph
Humidity: 68%   Direction: 330°NNW
Pressure: 30.24"   Gusts: NA
Location:  54.09°N, 38.22°E
Report Text: UUDD 230630Z 33007MPS 9999 FEW020 M09/M14 Q1024 3219009582190095 NOSIG
Loading
Personal Weather Stations






























Interactive Weather Map
Tropical Storm Tracking
New forecast layout! Learn more

10-Day Weather Forecast

Advertisements
Track Severe Weather on mobile